createdAt,value
2018-05-27T00:00:48.311Z,15.00
2018-05-27T00:03:15.716Z,16.23
2018-05-27T00:08:14.789Z,14.43
2018-05-27T00:10:42.316Z,16.10
2018-05-27T00:13:09.795Z,16.77
2018-05-27T00:15:37.551Z,15.43
2018-05-27T00:18:04.953Z,16.97
2018-05-27T00:20:32.383Z,15.93
2018-05-27T00:22:59.721Z,15.30
2018-05-27T00:25:27.115Z,15.80
2018-05-27T00:27:54.467Z,13.63
2018-05-27T00:30:21.910Z,16.07
2018-05-27T00:32:49.283Z,14.87
2018-05-27T00:35:16.752Z,17.20
2018-05-27T00:37:44.521Z,15.17
2018-05-27T00:40:12.213Z,15.30
2018-05-27T00:42:39.723Z,14.60
2018-05-27T00:45:07.149Z,17.60
2018-05-27T00:47:34.507Z,16.73
2018-05-27T00:50:01.898Z,16.50
2018-05-27T00:52:29.268Z,17.20
2018-05-27T00:54:56.598Z,19.57
2018-05-27T00:57:24.307Z,16.53
2018-05-27T00:59:51.622Z,18.00
2018-05-27T01:02:19.321Z,16.03
2018-05-27T01:04:46.873Z,15.43
2018-05-27T01:07:14.332Z,15.57
2018-05-27T01:09:41.993Z,16.87
2018-05-27T01:12:09.269Z,14.23
2018-05-27T01:14:36.577Z,14.20
2018-05-27T01:17:03.896Z,13.73
2018-05-27T01:19:31.391Z,15.57
2018-05-27T01:21:58.793Z,14.80
2018-05-27T01:24:26.173Z,13.90
2018-05-27T01:26:53.477Z,16.37
2018-05-27T01:29:20.898Z,14.50
2018-05-27T01:31:48.246Z,14.47
2018-05-27T01:34:15.597Z,14.50
2018-05-27T01:36:43.086Z,13.87
2018-05-27T01:39:10.429Z,14.33
2018-05-27T01:41:37.861Z,13.37
2018-05-27T01:44:06.429Z,13.53
2018-05-27T01:46:33.868Z,13.87
2018-05-27T01:49:01.324Z,13.07
2018-05-27T01:51:29.630Z,13.77
2018-05-27T01:53:57.105Z,13.83
2018-05-27T01:56:24.438Z,13.83
2018-05-27T01:58:51.721Z,14.43
2018-05-27T02:01:19.142Z,14.37
2018-05-27T02:03:46.923Z,13.80
2018-05-27T02:06:14.691Z,13.83
2018-05-27T02:08:42.081Z,14.93
2018-05-27T02:11:09.369Z,14.90
2018-05-27T02:13:36.988Z,14.53
2018-05-27T02:16:04.354Z,17.10
2018-05-27T02:18:31.723Z,15.13
2018-05-27T02:20:59.046Z,14.50
2018-05-27T02:23:26.362Z,14.90
2018-05-27T02:25:53.668Z,14.00
2018-05-27T02:28:20.966Z,14.00
2018-05-27T02:30:48.362Z,13.23
2018-05-27T02:33:15.759Z,14.43
2018-05-27T02:35:44.017Z,16.10
2018-05-27T02:38:11.333Z,14.70
2018-05-27T02:40:38.637Z,14.10
2018-05-27T02:43:06.148Z,14.53
2018-05-27T02:45:33.672Z,14.23
2018-05-27T02:48:00.997Z,14.63
2018-05-27T02:50:28.480Z,13.97
2018-05-27T02:52:55.759Z,12.67
2018-05-27T02:55:24.450Z,14.57
2018-05-27T02:57:51.957Z,13.57
2018-05-27T03:00:19.271Z,15.13
2018-05-27T03:02:47.049Z,13.87
2018-05-27T03:05:14.466Z,14.47
2018-05-27T03:07:41.817Z,14.47
2018-05-27T03:10:09.098Z,15.10
2018-05-27T03:12:36.416Z,14.20
2018-05-27T03:15:03.736Z,14.50
2018-05-27T03:17:31.088Z,13.37
2018-05-27T03:19:58.421Z,13.67
2018-05-27T03:22:25.730Z,14.00
2018-05-27T03:24:53.053Z,14.43
2018-05-27T03:27:20.359Z,15.17
2018-05-27T03:29:47.708Z,13.57
2018-05-27T03:32:14.994Z,14.37
2018-05-27T03:34:42.307Z,13.43
2018-05-27T03:37:09.613Z,14.53
2018-05-27T03:39:36.949Z,13.73
2018-05-27T03:42:04.271Z,13.57
2018-05-27T03:44:31.612Z,14.43
2018-05-27T03:46:58.895Z,14.57
2018-05-27T03:49:26.205Z,13.60
2018-05-27T03:51:53.482Z,15.07
2018-05-27T03:54:20.789Z,15.20
2018-05-27T03:56:48.116Z,13.93
2018-05-27T03:59:15.455Z,14.80
2018-05-27T04:01:43.482Z,14.00
2018-05-27T04:04:17.707Z,15.40
2018-05-27T04:06:50.893Z,13.30
2018-05-27T04:09:18.190Z,13.10
2018-05-27T04:11:45.554Z,13.80
2018-05-27T04:14:12.937Z,11.07
2018-05-27T04:16:40.404Z,11.87
2018-05-27T04:19:07.691Z,9.40
2018-05-27T04:21:38.385Z,9.37
2018-05-27T04:24:05.714Z,9.10
2018-05-27T04:26:33.089Z,8.40
2018-05-27T04:29:00.382Z,9.07
2018-05-27T04:31:27.690Z,8.30
2018-05-27T04:33:55.001Z,8.67
2018-05-27T04:36:22.296Z,9.43
2018-05-27T04:38:49.638Z,11.20
2018-05-27T04:41:17.190Z,11.60
2018-05-27T04:43:44.563Z,11.63
2018-05-27T04:46:12.276Z,11.30
2018-05-27T04:48:39.744Z,10.67
2018-05-27T04:51:07.326Z,11.80
2018-05-27T04:53:34.838Z,11.83
2018-05-27T04:56:02.146Z,12.90
2018-05-27T04:58:29.705Z,13.77
2018-05-27T05:00:57.037Z,12.90
2018-05-27T05:03:24.357Z,13.97
2018-05-27T05:05:51.891Z,14.10
2018-05-27T05:08:19.236Z,14.10
2018-05-27T05:10:46.920Z,12.60
2018-05-27T05:13:14.504Z,14.40
2018-05-27T05:15:41.862Z,13.30
2018-05-27T05:18:09.453Z,11.90
2018-05-27T05:20:36.805Z,12.77
2018-05-27T05:23:04.191Z,10.47
2018-05-27T05:25:33.368Z,14.23
2018-05-27T05:28:01.246Z,8.83
2018-05-27T05:30:28.569Z,8.23
2018-05-27T05:32:55.850Z,8.87
2018-05-27T05:35:23.163Z,9.70
2018-05-27T05:37:50.514Z,10.30
2018-05-27T05:40:18.168Z,9.30
2018-05-27T05:42:45.622Z,10.03
2018-05-27T05:45:13.605Z,10.40
2018-05-27T05:47:41.082Z,10.17
2018-05-27T05:50:08.374Z,10.70
2018-05-27T05:52:35.850Z,11.70
2018-05-27T05:55:03.294Z,11.47
2018-05-27T05:57:30.697Z,7.70
2018-05-27T05:59:58.021Z,8.90
2018-05-27T06:02:25.868Z,9.03
2018-05-27T06:04:53.295Z,9.03
2018-05-27T06:07:20.860Z,10.13
2018-05-27T06:09:48.272Z,9.67
2018-05-27T06:12:16.915Z,11.37
2018-05-27T06:14:44.503Z,9.60
2018-05-27T06:17:11.793Z,22.53
2018-05-27T06:19:39.811Z,9.43
2018-05-27T06:22:07.234Z,8.23
2018-05-27T06:24:35.000Z,8.50
2018-05-27T06:27:02.286Z,8.50
2018-05-27T06:29:29.690Z,8.33
2018-05-27T06:31:57.040Z,9.00
2018-05-27T06:34:24.846Z,8.80
2018-05-27T06:36:52.182Z,7.87
2018-05-27T06:39:19.852Z,9.20
2018-05-27T06:41:48.577Z,8.77
2018-05-27T06:44:17.036Z,8.90
2018-05-27T06:46:45.853Z,7.63
2018-05-27T06:49:16.359Z,6.10
2018-05-27T06:51:45.899Z,7.40
2018-05-27T06:54:14.417Z,7.30
2018-05-27T06:56:42.341Z,6.67
2018-05-27T06:59:09.779Z,7.37
2018-05-27T07:01:37.085Z,8.60
2018-05-27T07:04:04.452Z,7.00
2018-05-27T07:06:31.971Z,6.57
2018-05-27T07:08:59.394Z,6.47
2018-05-27T07:11:29.309Z,6.53
2018-05-27T07:13:56.667Z,6.27
2018-05-27T07:16:24.170Z,6.33
2018-05-27T07:18:51.766Z,6.50
2018-05-27T07:21:19.942Z,6.80
2018-05-27T07:23:47.692Z,6.20
2018-05-27T07:26:16.271Z,6.10
2018-05-27T07:28:44.506Z,7.37
2018-05-27T07:31:11.956Z,7.40
2018-05-27T07:33:40.718Z,6.27
2018-05-27T07:36:10.062Z,7.00
2018-05-27T07:38:37.650Z,7.53
2018-05-27T07:41:04.947Z,6.83
2018-05-27T07:43:32.397Z,7.70
2018-05-27T07:45:59.848Z,5.93
2018-05-27T07:48:28.040Z,7.13
2018-05-27T07:50:55.335Z,6.10
2018-05-27T07:55:55.277Z,8.43
2018-05-27T07:58:23.307Z,8.33
2018-05-27T08:00:51.279Z,6.87
2018-05-27T08:03:18.740Z,6.43
2018-05-27T08:05:47.564Z,6.50
2018-05-27T08:08:15.408Z,7.80
2018-05-27T08:10:42.810Z,6.60
2018-05-27T08:13:10.163Z,6.20
2018-05-27T08:15:37.466Z,7.20
2018-05-27T08:18:05.684Z,7.27
2018-05-27T08:20:33.850Z,7.37
2018-05-27T08:23:01.146Z,7.97
2018-05-27T08:25:28.426Z,5.80
2018-05-27T08:27:56.523Z,6.40
2018-05-27T08:30:23.854Z,7.43
2018-05-27T08:32:51.237Z,6.93
2018-05-27T08:35:18.669Z,7.37
2018-05-27T08:37:46.005Z,7.60
2018-05-27T08:40:13.378Z,6.60
2018-05-27T08:42:40.688Z,5.67
2018-05-27T08:45:08.049Z,7.50
2018-05-27T08:47:35.394Z,6.07
2018-05-27T08:52:36.346Z,7.37
2018-05-27T08:57:38.220Z,6.67
2018-05-27T09:00:06.298Z,6.40
2018-05-27T09:02:33.556Z,6.80
2018-05-27T09:05:00.841Z,6.27
2018-05-27T09:07:28.113Z,6.47
2018-05-27T09:09:55.882Z,7.90
2018-05-27T09:12:23.167Z,6.60
2018-05-27T09:14:51.088Z,6.70
2018-05-27T09:17:19.004Z,6.80
2018-05-27T09:19:46.873Z,7.37
2018-05-27T09:22:14.206Z,7.53
2018-05-27T09:24:41.711Z,7.70
2018-05-27T09:27:09.208Z,7.73
2018-05-27T09:29:36.684Z,8.50
2018-05-27T09:32:04.121Z,8.07
2018-05-27T09:42:14.666Z,7.80
2018-05-27T09:44:42.606Z,7.30
2018-05-27T09:47:11.376Z,7.07
2018-05-27T09:54:42.599Z,7.67
2018-05-27T09:57:13.644Z,8.47
2018-05-27T09:59:41.046Z,8.37
2018-05-27T10:02:09.003Z,6.90
2018-05-27T10:04:44.658Z,7.70
2018-05-27T10:07:12.191Z,6.20
2018-05-27T10:09:39.531Z,7.90
2018-05-27T10:14:41.590Z,8.57
2018-05-27T10:19:44.778Z,9.00
2018-05-27T10:22:13.670Z,10.47
2018-05-27T10:24:41.192Z,9.80
2018-05-27T10:27:08.649Z,6.50
2018-05-27T10:29:36.177Z,8.13
2018-05-27T10:32:03.512Z,7.20
2018-05-27T10:37:04.642Z,7.40
2018-05-27T10:42:04.853Z,7.83
2018-05-27T10:47:08.271Z,7.07
2018-05-27T10:52:14.253Z,5.77
2018-05-27T10:54:41.570Z,7.53
2018-05-27T10:57:09.160Z,5.37
2018-05-27T10:59:40.422Z,6.07
2018-05-27T11:02:11.157Z,5.97
2018-05-27T11:04:40.000Z,7.17
2018-05-27T11:07:07.444Z,8.60
2018-05-27T11:09:38.351Z,6.17
2018-05-27T11:12:05.883Z,5.40
2018-05-27T11:14:33.247Z,6.57
2018-05-27T11:17:00.655Z,7.20
2018-05-27T11:19:28.283Z,6.77
2018-05-27T11:21:55.630Z,7.57
2018-05-27T11:26:58.185Z,6.60
2018-05-27T11:32:01.663Z,6.77
2018-05-27T11:34:29.061Z,6.90
2018-05-27T11:36:56.484Z,6.03
2018-05-27T11:41:56.885Z,5.37
2018-05-27T11:46:56.806Z,6.50
2018-05-27T11:49:24.508Z,5.37
2018-05-27T11:51:52.076Z,8.03
2018-05-27T11:54:19.926Z,7.20
2018-05-27T11:56:47.486Z,7.27
2018-05-27T11:59:15.280Z,5.90
2018-05-27T12:06:50.242Z,5.33
2018-05-27T12:11:52.977Z,5.57
2018-05-27T12:14:20.671Z,5.23
2018-05-27T12:16:48.130Z,4.37
2018-05-27T12:19:17.593Z,5.00
2018-05-27T12:21:45.495Z,4.40
2018-05-27T12:26:46.261Z,7.87
2018-05-27T12:29:14.005Z,5.03
2018-05-27T12:31:41.512Z,5.00
2018-05-27T12:34:08.904Z,4.83
2018-05-27T12:36:37.734Z,4.93
2018-05-27T12:39:05.945Z,4.90
2018-05-27T12:41:33.482Z,4.87
2018-05-27T12:44:00.855Z,5.57
2018-05-27T12:46:29.351Z,4.57
2018-05-27T12:49:05.922Z,5.70
2018-05-27T12:51:36.299Z,6.00
2018-05-27T12:54:04.309Z,4.40
2018-05-27T12:59:07.966Z,4.80
2018-05-27T13:01:38.518Z,5.23
2018-05-27T13:04:07.569Z,4.50
2018-05-27T13:06:35.468Z,4.67
2018-05-27T13:09:02.765Z,4.10
2018-05-27T13:11:30.033Z,4.40
2018-05-27T13:13:57.456Z,4.40
2018-05-27T13:16:24.936Z,5.30
2018-05-27T13:18:52.473Z,3.57
2018-05-27T13:21:20.676Z,4.10
2018-05-27T13:23:49.344Z,4.50
2018-05-27T13:26:16.981Z,4.20
2018-05-27T13:28:44.673Z,4.00
2018-05-27T13:31:12.447Z,4.43
2018-05-27T13:33:39.809Z,3.93
2018-05-27T13:38:41.838Z,3.50
2018-05-27T13:41:09.162Z,4.20
2018-05-27T13:43:36.889Z,3.37
2018-05-27T13:46:04.388Z,3.13
2018-05-27T13:48:31.669Z,2.80
2018-05-27T13:50:59.285Z,3.70
2018-05-27T13:53:26.651Z,3.50
2018-05-27T13:55:54.526Z,3.80
2018-05-27T13:58:21.973Z,2.73
2018-05-27T14:03:22.187Z,2.83
2018-05-27T14:05:49.605Z,3.20
2018-05-27T14:08:17.199Z,3.00
2018-05-27T14:10:44.822Z,3.33
2018-05-27T14:13:12.313Z,2.87
2018-05-27T14:15:40.399Z,3.70
2018-05-27T14:18:07.982Z,3.27
2018-05-27T14:20:35.496Z,3.40
2018-05-27T14:23:02.846Z,3.40
2018-05-27T14:25:30.301Z,3.23
2018-05-27T14:30:29.389Z,3.17
2018-05-27T14:33:00.676Z,2.60
2018-05-27T14:35:28.137Z,3.13
2018-05-27T14:37:55.475Z,3.10
2018-05-27T14:40:23.623Z,4.37
2018-05-27T14:42:51.018Z,4.03
2018-05-27T14:45:19.450Z,3.93
2018-05-27T14:47:47.331Z,3.30
2018-05-27T14:50:16.123Z,3.20
2018-05-27T14:52:45.248Z,3.10
2018-05-27T14:55:17.212Z,3.10
2018-05-27T14:57:45.059Z,3.73
2018-05-27T15:00:12.386Z,3.23
2018-05-27T15:02:40.513Z,3.47
2018-05-27T15:05:07.945Z,3.60
2018-05-27T15:07:36.219Z,3.03
2018-05-27T15:12:35.956Z,2.83
2018-05-27T15:15:03.930Z,3.70
2018-05-27T15:17:31.264Z,3.40
2018-05-27T15:19:58.589Z,3.37
2018-05-27T15:22:25.897Z,3.90
2018-05-27T15:24:53.293Z,3.23
2018-05-27T15:27:20.669Z,3.50
2018-05-27T15:29:49.851Z,2.83
2018-05-27T15:32:17.828Z,6.43
2018-05-27T15:34:45.566Z,3.60
2018-05-27T15:37:13.980Z,3.20
2018-05-27T15:39:42.242Z,3.00
2018-05-27T15:42:10.073Z,3.27
2018-05-27T15:44:37.664Z,2.93
2018-05-27T15:47:05.235Z,4.13
2018-05-27T15:49:33.033Z,2.63
2018-05-27T15:52:00.424Z,2.93
2018-05-27T15:54:27.747Z,3.40
2018-05-27T15:56:55.329Z,3.50
2018-05-27T15:59:22.952Z,3.20
2018-05-27T16:01:50.404Z,3.03
2018-05-27T16:04:18.076Z,3.10
2018-05-27T16:09:20.279Z,3.73
2018-05-27T16:11:48.663Z,3.00
2018-05-27T16:14:17.148Z,3.90
2018-05-27T16:16:44.942Z,3.33
2018-05-27T16:19:13.572Z,3.17
2018-05-27T16:21:42.788Z,3.97
2018-05-27T16:24:11.961Z,3.70
2018-05-27T16:26:39.412Z,3.20
2018-05-27T16:29:07.315Z,3.50
2018-05-27T16:34:06.744Z,3.47
2018-05-27T16:36:38.000Z,4.10
2018-05-27T16:39:05.583Z,3.70
2018-05-27T16:41:32.986Z,3.90
2018-05-27T16:44:01.611Z,4.63
2018-05-27T16:49:00.719Z,3.97
2018-05-27T16:51:28.177Z,4.20
2018-05-27T16:53:56.791Z,4.30
2018-05-27T17:04:05.226Z,4.57
2018-05-27T17:06:33.055Z,5.23
2018-05-27T17:11:32.036Z,4.50
2018-05-27T17:13:59.571Z,5.00
2018-05-27T17:16:26.938Z,4.33
2018-05-27T17:18:57.761Z,4.67
2018-05-27T17:23:56.670Z,4.97
2018-05-27T17:26:24.592Z,4.73
2018-05-27T17:28:51.978Z,6.00
2018-05-27T17:31:19.642Z,4.77
2018-05-27T17:36:21.390Z,4.47
2018-05-27T17:38:49.308Z,4.70
2018-05-27T17:41:17.002Z,5.20
2018-05-27T17:43:45.548Z,4.23
2018-05-27T17:46:12.903Z,4.30
2018-05-27T17:48:40.435Z,4.30
2018-05-27T17:51:08.939Z,4.77
2018-05-27T17:53:36.677Z,5.00
2018-05-27T17:56:04.284Z,4.70
2018-05-27T17:58:31.701Z,4.87
2018-05-27T18:00:59.148Z,4.80
2018-05-27T18:03:26.523Z,4.20
2018-05-27T18:05:55.210Z,5.50
2018-05-27T18:08:23.175Z,4.57
2018-05-27T18:10:50.793Z,4.10
2018-05-27T18:13:18.417Z,4.37
2018-05-27T18:15:46.224Z,5.00
2018-05-27T18:18:14.112Z,5.20
2018-05-27T18:20:44.335Z,4.07
2018-05-27T18:23:12.806Z,4.10
2018-05-27T18:25:42.334Z,4.17
2018-05-27T18:28:09.839Z,5.17
2018-05-27T18:30:37.149Z,5.03
2018-05-27T18:33:04.465Z,4.40
2018-05-27T18:35:31.972Z,5.20
2018-05-27T18:37:59.468Z,4.80
2018-05-27T18:40:27.030Z,4.97
2018-05-27T18:42:54.934Z,6.20
2018-05-27T18:45:24.622Z,4.53
2018-05-27T18:50:23.963Z,6.30
2018-05-27T18:52:52.005Z,5.10
2018-05-27T18:55:20.441Z,4.20
2018-05-27T18:57:48.089Z,4.73
2018-05-27T19:00:15.571Z,4.80
2018-05-27T19:02:43.008Z,4.33
2018-05-27T19:05:10.702Z,4.90
2018-05-27T19:10:11.942Z,4.97
2018-05-27T19:12:39.285Z,4.40
2018-05-27T19:15:06.765Z,4.90
2018-05-27T19:17:36.174Z,5.43
2018-05-27T19:20:03.477Z,5.90
2018-05-27T19:22:30.938Z,6.10
2018-05-27T19:24:58.706Z,6.40
2018-05-27T19:27:26.080Z,5.03
2018-05-27T19:29:53.456Z,6.43
2018-05-27T19:32:21.107Z,6.27
2018-05-27T19:34:49.689Z,6.60
2018-05-27T19:37:18.440Z,6.00
2018-05-27T19:39:45.913Z,6.10
2018-05-27T19:42:13.343Z,6.00
2018-05-27T19:44:40.950Z,7.33
2018-05-27T19:47:08.549Z,10.30
2018-05-27T19:49:36.164Z,12.13
2018-05-27T19:52:03.480Z,8.57
2018-05-27T19:54:30.999Z,7.83
2018-05-27T19:56:59.010Z,7.60
2018-05-27T19:59:26.427Z,6.77
2018-05-27T20:01:53.897Z,7.67
2018-05-27T20:04:21.286Z,7.50
2018-05-27T20:06:48.868Z,7.23
2018-05-27T20:09:17.409Z,9.13
2018-05-27T20:11:44.915Z,23.93
2018-05-27T20:14:12.507Z,8.17
2018-05-27T20:16:41.023Z,9.13
2018-05-27T20:19:08.621Z,13.27
2018-05-27T20:21:36.135Z,8.90
2018-05-27T20:24:03.573Z,8.63
2018-05-27T20:26:30.995Z,6.93
2018-05-27T20:28:58.362Z,7.80
2018-05-27T20:31:25.670Z,8.10
2018-05-27T20:33:53.100Z,9.33
2018-05-27T20:36:20.826Z,8.13
2018-05-27T20:41:20.788Z,8.50
2018-05-27T20:43:48.308Z,8.80
2018-05-27T20:46:15.910Z,8.13
2018-05-27T20:48:43.592Z,9.33
2018-05-27T20:51:11.373Z,9.43
2018-05-27T20:53:38.741Z,9.10
2018-05-27T20:56:07.179Z,9.63
2018-05-27T20:58:34.657Z,8.93
2018-05-27T21:01:02.009Z,8.83
2018-05-27T21:03:29.525Z,8.90
2018-05-27T21:05:57.046Z,8.40
2018-05-27T21:08:24.427Z,8.80
2018-05-27T21:10:53.958Z,8.40
2018-05-27T21:13:21.284Z,8.37
2018-05-27T21:15:48.660Z,8.37
2018-05-27T21:18:16.337Z,7.83
2018-05-27T21:20:43.734Z,9.40
2018-05-27T21:23:11.386Z,8.70
2018-05-27T21:25:39.100Z,9.57
2018-05-27T21:28:06.420Z,8.77
2018-05-27T21:30:35.103Z,9.10
2018-05-27T21:33:02.520Z,9.43
2018-05-27T21:35:31.269Z,9.13
2018-05-27T21:38:00.239Z,9.37
2018-05-27T21:40:28.568Z,9.23
2018-05-27T21:42:55.988Z,9.50
2018-05-27T21:45:23.661Z,10.47
2018-05-27T21:48:04.307Z,10.00
2018-05-27T21:50:32.731Z,8.87
2018-05-27T21:53:00.618Z,10.23
2018-05-27T21:55:29.870Z,9.10
2018-05-27T21:57:57.224Z,9.87
2018-05-27T22:00:24.657Z,7.93
2018-05-27T22:02:53.267Z,8.97
2018-05-27T22:05:20.848Z,8.40
2018-05-27T22:07:48.381Z,9.30
2018-05-27T22:10:15.962Z,8.27
2018-05-27T22:12:43.643Z,8.67
2018-05-27T22:15:11.079Z,10.90
2018-05-27T22:17:38.531Z,8.30
2018-05-27T22:20:08.126Z,8.77
2018-05-27T22:22:35.589Z,9.40
2018-05-27T22:25:02.924Z,8.00
2018-05-27T22:27:30.248Z,8.17
2018-05-27T22:29:57.704Z,8.67
2018-05-27T22:32:29.539Z,8.10
2018-05-27T22:34:56.939Z,8.53
2018-05-27T22:37:24.285Z,8.50
2018-05-27T22:39:51.643Z,9.50
2018-05-27T22:42:19.551Z,8.80
2018-05-27T22:44:47.699Z,9.17
2018-05-27T22:47:15.020Z,9.57
2018-05-27T22:49:42.401Z,7.60
2018-05-27T22:52:09.728Z,8.30
2018-05-27T22:54:37.065Z,10.20
2018-05-27T22:57:04.409Z,8.73
2018-05-27T22:59:31.774Z,9.00
2018-05-27T23:02:00.285Z,9.30
2018-05-27T23:04:27.599Z,8.60
2018-05-27T23:06:54.919Z,8.30
2018-05-27T23:09:22.221Z,9.17
2018-05-27T23:11:49.611Z,9.20
2018-05-27T23:14:18.041Z,8.90
2018-05-27T23:16:45.497Z,8.60
2018-05-27T23:19:13.158Z,8.00
2018-05-27T23:21:40.477Z,10.53
2018-05-27T23:24:07.788Z,9.10
2018-05-27T23:26:36.178Z,9.57
2018-05-27T23:29:03.583Z,9.50
2018-05-27T23:31:30.892Z,9.80
2018-05-27T23:33:58.207Z,8.93
2018-05-27T23:36:25.550Z,8.10
2018-05-27T23:38:52.850Z,8.97
2018-05-27T23:41:20.227Z,8.67
2018-05-27T23:43:47.663Z,8.67
2018-05-27T23:46:17.006Z,10.73
2018-05-27T23:48:44.757Z,8.77
2018-05-27T23:51:12.069Z,8.40
2018-05-27T23:53:40.469Z,9.37
2018-05-27T23:56:07.877Z,9.20
2018-05-27T23:58:35.213Z,8.43
